createdAt,value
2018-09-29T00:01:22.854Z,99.90
2018-09-29T00:03:54.929Z,99.90
2018-09-29T00:06:23.164Z,99.90
2018-09-29T00:08:57.656Z,99.90
2018-09-29T00:11:35.412Z,99.90
2018-09-29T00:14:03.629Z,99.90
2018-09-29T00:16:36.205Z,99.90
2018-09-29T00:19:04.291Z,99.90
2018-09-29T00:21:36.508Z,99.90
2018-09-29T00:24:07.586Z,99.90
2018-09-29T00:26:35.750Z,99.90
2018-09-29T00:29:07.384Z,99.90
2018-09-29T00:31:40.703Z,99.90
2018-09-29T00:34:12.941Z,99.90
2018-09-29T00:36:43.229Z,99.90
2018-09-29T00:39:11.289Z,99.90
2018-09-29T00:41:45.805Z,99.90
2018-09-29T00:44:20.208Z,99.90
2018-09-29T00:46:53.289Z,99.90
2018-09-29T00:49:23.436Z,99.90
2018-09-29T00:51:51.514Z,99.90
2018-09-29T00:54:22.373Z,99.90
2018-09-29T00:56:50.576Z,99.90
2018-09-29T00:59:21.578Z,99.90
2018-09-29T01:01:49.596Z,99.90
2018-09-29T01:04:29.422Z,99.90
2018-09-29T01:06:57.603Z,99.90
2018-09-29T01:09:30.843Z,99.90
2018-09-29T01:12:01.929Z,99.90
2018-09-29T01:14:30.227Z,99.90
2018-09-29T01:16:58.415Z,99.90
2018-09-29T01:19:33.146Z,99.90
2018-09-29T01:22:01.234Z,99.90
2018-09-29T01:24:32.105Z,99.90
2018-09-29T01:27:00.213Z,99.90
2018-09-29T01:29:39.432Z,99.90
2018-09-29T01:32:10.779Z,99.90
2018-09-29T01:34:43.181Z,99.90
2018-09-29T01:37:11.443Z,99.90
2018-09-29T01:39:39.590Z,99.90
2018-09-29T01:42:10.488Z,99.90
2018-09-29T01:44:38.758Z,99.90
2018-09-29T01:47:11.230Z,99.90
2018-09-29T01:49:44.610Z,99.90
2018-09-29T01:52:24.320Z,99.90
2018-09-29T01:54:52.405Z,99.90
2018-09-29T01:57:26.744Z,99.90
2018-09-29T01:59:59.150Z,99.90
2018-09-29T02:02:29.364Z,99.90
2018-09-29T02:04:57.549Z,99.90
2018-09-29T02:07:25.575Z,99.90
2018-09-29T02:09:57.869Z,99.90
2018-09-29T02:12:26.128Z,99.90
2018-09-29T02:14:54.214Z,99.90
2018-09-29T02:17:25.077Z,99.90
2018-09-29T02:19:53.274Z,99.90
2018-09-29T02:22:24.608Z,99.90
2018-09-29T02:24:55.562Z,99.90
2018-09-29T02:27:23.686Z,99.90
2018-09-29T02:29:57.961Z,99.90
2018-09-29T02:32:28.146Z,99.90
2018-09-29T02:34:56.277Z,99.90
2018-09-29T02:37:28.573Z,99.90
2018-09-29T02:39:59.391Z,99.90
2018-09-29T02:42:27.454Z,99.90
2018-09-29T02:44:58.336Z,99.90
2018-09-29T02:47:26.576Z,99.90
2018-09-29T02:50:00.882Z,99.90
2018-09-29T02:52:33.285Z,99.90
2018-09-29T02:55:07.701Z,99.90
2018-09-29T02:57:40.858Z,99.90
2018-09-29T03:00:08.948Z,99.90
2018-09-29T03:02:43.085Z,99.90
2018-09-29T03:05:11.341Z,99.90
2018-09-29T03:07:39.817Z,99.90
2018-09-29T03:10:08.062Z,99.90
2018-09-29T03:12:36.092Z,99.90
2018-09-29T03:15:07.422Z,99.90
2018-09-29T03:17:35.601Z,99.90
2018-09-29T03:20:03.859Z,99.90
2018-09-29T03:22:38.388Z,99.90
2018-09-29T03:25:08.662Z,99.90
2018-09-29T03:27:48.892Z,99.90
2018-09-29T03:30:20.105Z,99.90
2018-09-29T03:32:48.182Z,99.90
2018-09-29T03:35:21.069Z,99.90
2018-09-29T03:37:49.153Z,99.90
2018-09-29T03:40:29.863Z,99.90
2018-09-29T03:42:57.958Z,99.90
2018-09-29T03:45:32.401Z,99.90
2018-09-29T03:48:08.971Z,99.90
2018-09-29T03:50:40.982Z,99.90
2018-09-29T03:53:24.975Z,99.90
2018-09-29T03:55:53.160Z,99.90
2018-09-29T03:58:24.442Z,99.90
2018-09-29T04:01:04.941Z,99.90
2018-09-29T04:03:40.106Z,99.90
2018-09-29T04:06:08.369Z,99.90
2018-09-29T04:08:36.405Z,99.90
2018-09-29T04:11:16.120Z,99.90
2018-09-29T04:13:44.376Z,99.90
2018-09-29T04:16:17.338Z,99.90
2018-09-29T04:18:47.652Z,99.90
2018-09-29T04:21:15.753Z,99.90
2018-09-29T04:23:46.663Z,99.90
2018-09-29T04:26:14.753Z,99.90
2018-09-29T04:28:49.053Z,99.90
2018-09-29T04:31:20.126Z,99.90
2018-09-29T04:33:48.164Z,99.90
2018-09-29T04:36:22.956Z,99.90
2018-09-29T04:38:51.363Z,99.90
2018-09-29T04:41:19.446Z,99.90
2018-09-29T04:43:50.510Z,99.90
2018-09-29T04:46:18.627Z,99.90
2018-09-29T04:48:49.641Z,99.90
2018-09-29T04:51:20.738Z,99.90
2018-09-29T04:53:48.824Z,99.90
2018-09-29T04:56:27.004Z,99.90
2018-09-29T04:58:57.370Z,99.90
2018-09-29T05:01:25.442Z,99.90
2018-09-29T05:03:59.958Z,99.90
2018-09-29T05:06:31.135Z,99.90
2018-09-29T05:09:09.321Z,99.90
2018-09-29T05:11:39.616Z,99.90
2018-09-29T05:14:07.916Z,99.90
2018-09-29T05:16:40.143Z,99.90
2018-09-29T05:19:15.484Z,99.90
2018-09-29T05:21:47.799Z,99.90
2018-09-29T05:24:16.457Z,99.90
2018-09-29T05:26:56.270Z,99.90
2018-09-29T05:29:24.350Z,99.90
2018-09-29T05:31:55.126Z,99.90
2018-09-29T05:34:25.318Z,99.90
2018-09-29T05:36:56.181Z,99.90
2018-09-29T05:39:24.339Z,99.90
2018-09-29T05:41:55.191Z,99.90
2018-09-29T05:44:23.230Z,99.90
2018-09-29T05:46:56.510Z,99.90
2018-09-29T05:49:24.608Z,99.90
2018-09-29T05:51:52.683Z,99.90
2018-09-29T05:54:25.885Z,99.90
2018-09-29T05:56:56.377Z,99.90
2018-09-29T05:59:26.561Z,99.90
2018-09-29T06:01:54.788Z,99.90
2018-09-29T06:04:28.762Z,99.90
2018-09-29T06:06:59.037Z,99.90
2018-09-29T06:09:27.129Z,99.90
2018-09-29T06:11:57.522Z,99.90
2018-09-29T06:14:28.380Z,99.90
2018-09-29T06:16:56.402Z,99.90
2018-09-29T06:19:26.811Z,99.90
2018-09-29T06:22:09.791Z,99.90
2018-09-29T06:24:37.847Z,99.90
2018-09-29T06:27:19.865Z,99.90
2018-09-29T06:29:47.917Z,99.90
2018-09-29T06:32:29.083Z,99.90
2018-09-29T06:35:00.032Z,99.90
2018-09-29T06:37:28.207Z,99.90
2018-09-29T06:39:59.115Z,99.90
2018-09-29T06:42:27.420Z,99.90
2018-09-29T06:44:55.476Z,99.90
2018-09-29T06:47:28.542Z,99.90
2018-09-29T06:49:56.664Z,99.90
2018-09-29T06:52:31.111Z,99.90
2018-09-29T06:55:02.098Z,99.90
2018-09-29T06:57:30.552Z,99.90
2018-09-29T06:59:58.928Z,99.90
2018-09-29T07:02:26.977Z,99.90
2018-09-29T07:05:04.839Z,99.90
2018-09-29T07:07:32.904Z,99.90
2018-09-29T07:10:05.914Z,99.90
2018-09-29T07:12:33.977Z,99.90
2018-09-29T07:15:04.706Z,99.90
2018-09-29T07:17:32.742Z,99.90
2018-09-29T07:20:05.980Z,99.90
2018-09-29T07:22:34.384Z,99.90
2018-09-29T07:25:02.442Z,99.90
2018-09-29T07:27:35.465Z,99.90
2018-09-29T07:30:05.609Z,99.90
2018-09-29T07:32:33.680Z,99.90
2018-09-29T07:35:06.099Z,99.90
2018-09-29T07:37:37.097Z,99.90
2018-09-29T07:40:05.506Z,99.90
2018-09-29T07:42:33.550Z,99.90
2018-09-29T07:45:06.681Z,99.90
2018-09-29T07:47:34.700Z,99.90
2018-09-29T07:50:12.129Z,99.90
2018-09-29T07:52:46.394Z,99.90
2018-09-29T07:55:18.395Z,99.90
2018-09-29T07:57:46.364Z,99.90
2018-09-29T08:00:18.643Z,99.90
2018-09-29T08:02:48.922Z,99.90
2018-09-29T08:05:17.032Z,99.90
2018-09-29T08:07:51.675Z,99.90
2018-09-29T08:10:19.741Z,99.90
2018-09-29T08:12:51.767Z,99.90
2018-09-29T08:15:19.870Z,99.90
2018-09-29T08:17:50.687Z,99.90
2018-09-29T08:20:18.751Z,99.90
2018-09-29T08:22:52.012Z,99.90
2018-09-29T08:25:30.422Z,99.90
2018-09-29T08:28:10.412Z,99.90
2018-09-29T08:30:38.473Z,99.90
2018-09-29T08:33:09.334Z,99.90
2018-09-29T08:35:37.409Z,99.90
2018-09-29T08:38:11.825Z,99.90
2018-09-29T08:40:45.073Z,99.90
2018-09-29T08:43:15.272Z,99.90
2018-09-29T08:45:43.263Z,99.90
2018-09-29T08:48:14.670Z,99.90
2018-09-29T08:50:45.756Z,99.90
2018-09-29T08:53:14.026Z,99.90
2018-09-29T08:55:47.009Z,99.90
2018-09-29T08:58:17.188Z,99.90
2018-09-29T09:00:45.258Z,99.90
2018-09-29T09:03:16.062Z,99.90
2018-09-29T09:05:53.725Z,99.90
2018-09-29T09:08:21.819Z,99.90
2018-09-29T09:10:57.198Z,99.90
2018-09-29T09:13:34.777Z,99.90
2018-09-29T09:16:07.261Z,99.90
2018-09-29T09:18:38.401Z,99.90
2018-09-29T09:21:06.156Z,99.90
2018-09-29T09:23:40.721Z,99.90
2018-09-29T09:26:11.620Z,99.90
2018-09-29T09:28:41.839Z,99.90
2018-09-29T09:31:09.907Z,99.90
2018-09-29T09:33:40.739Z,99.90
2018-09-29T09:36:09.021Z,99.90
2018-09-29T09:38:43.574Z,99.90
2018-09-29T09:41:11.609Z,99.90
2018-09-29T09:43:41.830Z,99.90
2018-09-29T09:46:10.129Z,99.90
2018-09-29T09:48:38.183Z,99.90
2018-09-29T09:51:14.147Z,99.90
2018-09-29T09:53:42.222Z,99.90
2018-09-29T09:56:17.687Z,99.90
2018-09-29T09:58:48.799Z,99.90
2018-09-29T10:01:22.438Z,99.90
2018-09-29T10:03:55.572Z,99.90
2018-09-29T10:06:23.625Z,99.90
2018-09-29T10:08:56.875Z,99.90
2018-09-29T10:11:32.206Z,99.90
2018-09-29T10:14:10.227Z,99.90
2018-09-29T10:16:38.701Z,99.90
2018-09-29T10:19:07.059Z,99.90
2018-09-29T10:21:39.382Z,99.90
2018-09-29T10:24:10.389Z,99.90
2018-09-29T10:26:38.669Z,99.90
2018-09-29T10:29:06.684Z,99.90
2018-09-29T10:31:43.397Z,99.90
2018-09-29T10:34:14.222Z,99.90
2018-09-29T10:36:42.292Z,99.90
2018-09-29T10:39:16.745Z,99.90
2018-09-29T10:41:47.637Z,99.90
2018-09-29T10:44:15.825Z,99.90
2018-09-29T10:46:48.093Z,99.90
2018-09-29T10:49:18.955Z,99.90
2018-09-29T10:51:47.312Z,99.90
2018-09-29T10:54:18.391Z,99.90
2018-09-29T10:56:50.584Z,99.90
2018-09-29T10:59:18.978Z,99.90
2018-09-29T11:01:47.077Z,99.90
2018-09-29T11:04:25.143Z,99.90
2018-09-29T11:07:06.329Z,99.90
2018-09-29T11:09:34.399Z,99.90
2018-09-29T11:12:15.516Z,99.90
2018-09-29T11:14:47.675Z,99.90
2018-09-29T11:17:16.061Z,99.90
2018-09-29T11:19:44.017Z,99.90
2018-09-29T11:22:16.193Z,99.90
2018-09-29T11:24:44.372Z,99.90
2018-09-29T11:27:12.528Z,99.90
2018-09-29T11:29:43.357Z,99.90
2018-09-29T11:32:11.454Z,99.90
2018-09-29T11:34:44.494Z,99.90
2018-09-29T11:37:12.604Z,99.90
2018-09-29T11:39:49.106Z,99.90
2018-09-29T11:42:23.587Z,99.90
2018-09-29T11:44:54.490Z,99.90
2018-09-29T11:47:22.645Z,99.90
2018-09-29T11:49:50.770Z,99.90
2018-09-29T11:52:22.912Z,99.90
2018-09-29T11:54:51.101Z,99.90
2018-09-29T11:57:23.138Z,99.90
2018-09-29T11:59:55.344Z,99.90
2018-09-29T12:02:23.805Z,99.90
2018-09-29T12:04:51.996Z,99.90
2018-09-29T12:07:21.311Z,99.90
2018-09-29T12:09:59.649Z,99.90
2018-09-29T12:12:42.386Z,99.90
2018-09-29T12:15:10.544Z,99.90
2018-09-29T12:17:53.043Z,99.90
2018-09-29T12:20:27.429Z,99.90
2018-09-29T12:22:58.368Z,99.90
2018-09-29T12:25:26.552Z,99.90
2018-09-29T12:27:57.593Z,99.90
2018-09-29T12:30:42.638Z,99.90
2018-09-29T12:33:10.722Z,99.90
2018-09-29T12:35:48.753Z,99.90
2018-09-29T12:38:19.145Z,99.90
2018-09-29T12:40:47.621Z,99.90
2018-09-29T12:43:18.780Z,99.90
2018-09-29T12:45:47.088Z,99.90
2018-09-29T12:48:21.574Z,99.90
2018-09-29T12:50:52.893Z,99.90
2018-09-29T12:53:34.931Z,99.90
2018-09-29T12:56:05.426Z,99.90
2018-09-29T12:58:35.478Z,99.90
2018-09-29T13:01:08.518Z,99.90
2018-09-29T13:03:39.684Z,99.90
2018-09-29T13:06:08.734Z,99.90
2018-09-29T13:08:50.684Z,99.90
2018-09-29T13:11:18.783Z,99.70
2018-09-29T13:13:52.112Z,99.90
2018-09-29T13:16:23.054Z,99.80
2018-09-29T13:18:53.713Z,99.80
2018-09-29T13:21:25.924Z,99.70
2018-09-29T13:23:54.086Z,99.60
2018-09-29T13:26:30.048Z,99.10
2018-09-29T13:29:01.167Z,98.90
2018-09-29T13:31:29.304Z,98.60
2018-09-29T13:34:09.065Z,98.60
2018-09-29T13:36:37.124Z,98.30
2018-09-29T13:39:14.046Z,98.00
2018-09-29T13:41:42.149Z,97.80
2018-09-29T13:44:24.842Z,98.00
2018-09-29T13:46:53.018Z,98.20
2018-09-29T13:49:26.055Z,98.20
2018-09-29T13:51:56.327Z,97.80
2018-09-29T13:54:24.357Z,97.70
2018-09-29T13:56:57.371Z,98.10
2018-09-29T13:59:25.495Z,98.80
2018-09-29T14:01:59.885Z,98.20
2018-09-29T14:04:40.588Z,97.80
2018-09-29T14:07:08.713Z,98.00
2018-09-29T14:09:43.890Z,98.20
2018-09-29T14:12:12.068Z,97.80
2018-09-29T14:14:40.613Z,97.80
2018-09-29T14:17:08.678Z,97.60
2018-09-29T14:19:39.482Z,97.60
2018-09-29T14:22:07.633Z,97.70
2018-09-29T14:24:39.867Z,97.40
2018-09-29T14:27:18.157Z,97.30
2018-09-29T14:29:48.269Z,97.30
2018-09-29T14:32:16.317Z,97.50
2018-09-29T14:34:48.397Z,96.90
2018-09-29T14:37:16.453Z,96.70
2018-09-29T14:39:49.608Z,96.40
2018-09-29T14:42:29.285Z,96.40
2018-09-29T14:45:00.571Z,96.30
2018-09-29T14:47:32.158Z,96.30
2018-09-29T14:50:11.997Z,96.80
2018-09-29T14:52:40.111Z,96.80
2018-09-29T14:55:14.669Z,96.90
2018-09-29T14:57:48.511Z,97.10
2018-09-29T15:00:16.643Z,97.40
2018-09-29T15:02:51.242Z,97.30
2018-09-29T15:05:19.292Z,97.20
2018-09-29T15:07:54.547Z,97.30
2018-09-29T15:10:24.642Z,97.00
2018-09-29T15:12:52.757Z,97.00
2018-09-29T15:15:23.566Z,96.90
2018-09-29T15:18:01.232Z,96.90
2018-09-29T15:20:29.375Z,97.00
2018-09-29T15:23:09.064Z,97.10
2018-09-29T15:25:37.164Z,97.40
2018-09-29T15:28:11.755Z,97.10
2018-09-29T15:30:44.709Z,97.40
2018-09-29T15:33:12.942Z,97.50
2018-09-29T15:35:41.325Z,97.70
2018-09-29T15:38:09.396Z,97.80
2018-09-29T15:40:42.764Z,97.90
2018-09-29T15:43:12.901Z,98.00
2018-09-29T15:45:41.012Z,98.40
2018-09-29T15:48:15.848Z,98.60
2018-09-29T15:50:43.976Z,98.70
2018-09-29T15:53:16.365Z,98.90
2018-09-29T15:55:48.747Z,98.90
2018-09-29T15:58:31.361Z,99.00
2018-09-29T16:01:04.107Z,98.90
2018-09-29T16:03:32.382Z,99.00
2018-09-29T16:06:03.564Z,99.20
2018-09-29T16:08:34.479Z,99.50
2018-09-29T16:11:02.743Z,99.60
2018-09-29T16:13:37.148Z,99.80
2018-09-29T16:16:10.033Z,99.90
2018-09-29T16:18:38.185Z,99.90
2018-09-29T16:21:05.866Z,99.90
2018-09-29T16:23:33.930Z,99.90
2018-09-29T16:26:06.120Z,99.90
2018-09-29T16:28:36.424Z,99.90
2018-09-29T16:31:04.441Z,99.90
2018-09-29T16:33:39.699Z,99.90
2018-09-29T16:36:19.485Z,99.90
2018-09-29T16:38:52.026Z,99.90
2018-09-29T16:41:29.749Z,99.90
2018-09-29T16:43:58.035Z,99.90
2018-09-29T16:46:26.148Z,99.90
2018-09-29T16:48:57.293Z,99.90
2018-09-29T16:51:25.590Z,99.90
2018-09-29T16:53:53.911Z,99.90
2018-09-29T16:56:33.640Z,99.90
2018-09-29T16:59:01.877Z,99.90
2018-09-29T17:01:29.926Z,99.90
2018-09-29T17:04:01.348Z,99.90
2018-09-29T17:06:39.475Z,99.90
2018-09-29T17:09:10.233Z,99.90
2018-09-29T17:11:38.578Z,99.90
2018-09-29T17:14:09.337Z,99.90
2018-09-29T17:16:41.709Z,99.90
2018-09-29T17:19:23.467Z,99.90
2018-09-29T17:21:55.859Z,99.90
2018-09-29T17:24:32.692Z,99.90
2018-09-29T17:27:02.928Z,99.90
2018-09-29T17:29:31.126Z,99.90
2018-09-29T17:32:05.702Z,99.90
2018-09-29T17:34:36.977Z,99.90
2018-09-29T17:37:16.863Z,99.90
2018-09-29T17:39:44.936Z,99.90
2018-09-29T17:42:20.329Z,99.90
2018-09-29T17:44:54.577Z,99.90
2018-09-29T17:47:25.751Z,99.90
2018-09-29T17:49:53.826Z,99.90
2018-09-29T17:52:35.786Z,99.90
2018-09-29T17:55:06.245Z,99.90
2018-09-29T17:57:36.411Z,99.90
2018-09-29T18:00:04.676Z,99.90
2018-09-29T18:02:39.070Z,99.90
2018-09-29T18:05:12.957Z,99.90
2018-09-29T18:07:40.997Z,99.90
2018-09-29T18:10:15.581Z,99.90
2018-09-29T18:12:47.906Z,99.90
2018-09-29T18:15:23.406Z,99.90
2018-09-29T18:17:56.685Z,99.90
2018-09-29T18:20:27.468Z,99.90
2018-09-29T18:22:59.866Z,99.90
2018-09-29T18:25:30.660Z,99.90
2018-09-29T18:27:58.830Z,99.90
2018-09-29T18:30:29.771Z,99.90
2018-09-29T18:32:59.940Z,99.90
2018-09-29T18:35:28.075Z,99.90
2018-09-29T18:38:03.311Z,99.90
2018-09-29T18:40:37.865Z,99.90
2018-09-29T18:43:18.007Z,99.90
2018-09-29T18:45:48.221Z,99.90
2018-09-29T18:48:16.300Z,99.90
2018-09-29T18:50:47.133Z,99.90
2018-09-29T18:53:15.185Z,99.90
2018-09-29T18:55:51.271Z,99.90
2018-09-29T18:58:19.645Z,99.90
2018-09-29T19:00:47.881Z,99.90
2018-09-29T19:03:22.285Z,99.90
2018-09-29T19:05:51.347Z,99.90
2018-09-29T19:08:19.468Z,99.90
2018-09-29T19:10:49.218Z,99.90
2018-09-29T19:13:17.346Z,99.90
2018-09-29T19:15:46.282Z,99.90
2018-09-29T19:18:14.714Z,99.90
2018-09-29T19:20:43.044Z,99.90
2018-09-29T19:23:11.219Z,99.90
2018-09-29T19:25:44.137Z,99.90
2018-09-29T19:28:12.190Z,99.90
2018-09-29T19:30:43.370Z,99.90
2018-09-29T19:33:13.745Z,99.90
2018-09-29T19:35:41.883Z,99.90
2018-09-29T19:38:10.060Z,99.90
2018-09-29T19:40:49.632Z,99.90
2018-09-29T19:43:24.093Z,99.90
2018-09-29T19:46:00.924Z,99.90
2018-09-29T19:48:29.131Z,99.90
2018-09-29T19:50:57.723Z,99.90
2018-09-29T19:53:25.884Z,99.90
2018-09-29T19:56:00.141Z,99.90
2018-09-29T19:58:35.152Z,99.90
2018-09-29T20:01:03.371Z,99.90
2018-09-29T20:03:38.155Z,99.90
2018-09-29T20:06:06.353Z,99.90
2018-09-29T20:08:41.483Z,99.90
2018-09-29T20:11:12.785Z,99.90
2018-09-29T20:13:41.008Z,99.90
2018-09-29T20:16:09.125Z,99.90
2018-09-29T20:18:41.418Z,99.90
2018-09-29T20:21:15.398Z,99.90
2018-09-29T20:23:43.560Z,99.90
2018-09-29T20:26:15.694Z,99.90
2018-09-29T20:28:56.234Z,99.90
2018-09-29T20:31:29.607Z,99.90
2018-09-29T20:34:00.627Z,99.90
2018-09-29T20:36:28.723Z,99.90
2018-09-29T20:38:59.620Z,99.90
2018-09-29T20:41:27.721Z,99.90
2018-09-29T20:43:58.576Z,99.90
2018-09-29T20:46:26.952Z,99.90
2018-09-29T20:49:00.873Z,99.90
2018-09-29T20:51:36.806Z,99.90
2018-09-29T20:54:08.914Z,99.90
2018-09-29T20:56:42.051Z,99.90
2018-09-29T20:59:22.107Z,99.90
2018-09-29T21:01:53.133Z,99.90
2018-09-29T21:04:32.127Z,99.90
2018-09-29T21:07:00.220Z,99.90
2018-09-29T21:09:39.874Z,99.90
2018-09-29T21:12:19.539Z,99.90
2018-09-29T21:14:47.686Z,99.90
2018-09-29T21:17:22.072Z,99.90
2018-09-29T21:20:01.798Z,99.90
2018-09-29T21:22:29.909Z,99.90
2018-09-29T21:25:03.061Z,99.90
2018-09-29T21:27:42.771Z,99.90
2018-09-29T21:30:13.603Z,99.90
2018-09-29T21:32:41.652Z,99.90
2018-09-29T21:35:14.832Z,99.90
2018-09-29T21:37:45.075Z,99.90
2018-09-29T21:40:13.145Z,99.90
2018-09-29T21:42:44.007Z,99.90
2018-09-29T21:45:12.045Z,99.90
2018-09-29T21:47:42.953Z,99.90
2018-09-29T21:50:11.167Z,99.90
2018-09-29T21:52:46.615Z,99.90
2018-09-29T21:55:21.047Z,99.90
2018-09-29T21:57:58.785Z,99.90
2018-09-29T22:00:32.637Z,99.90
2018-09-29T22:03:04.936Z,99.90
2018-09-29T22:05:33.077Z,99.90
2018-09-29T22:08:01.176Z,99.90
2018-09-29T22:10:41.508Z,99.90
2018-09-29T22:13:12.725Z,99.90
2018-09-29T22:15:40.797Z,99.90
2018-09-29T22:18:15.234Z,99.90
2018-09-29T22:20:49.722Z,99.90
2018-09-29T22:23:21.009Z,99.90
2018-09-29T22:25:51.887Z,99.90
2018-09-29T22:28:19.905Z,99.90
2018-09-29T22:30:52.148Z,99.90
2018-09-29T22:33:31.613Z,99.90
2018-09-29T22:36:05.157Z,99.90
2018-09-29T22:38:47.329Z,99.90
2018-09-29T22:41:17.769Z,99.90
2018-09-29T22:43:46.013Z,99.90
2018-09-29T22:46:14.093Z,99.90
2018-09-29T22:48:44.938Z,99.90
2018-09-29T22:51:13.213Z,99.90
2018-09-29T22:53:49.779Z,99.90
2018-09-29T22:56:22.340Z,99.90
2018-09-29T22:58:50.430Z,99.90
2018-09-29T23:01:30.353Z,99.90
2018-09-29T23:03:58.528Z,99.90
2018-09-29T23:06:34.376Z,99.90
2018-09-29T23:09:02.847Z,99.90
2018-09-29T23:11:31.169Z,99.90
2018-09-29T23:13:59.359Z,99.90
2018-09-29T23:16:33.865Z,99.90
2018-09-29T23:19:08.475Z,99.90
2018-09-29T23:21:36.534Z,99.90
2018-09-29T23:24:07.906Z,99.90
2018-09-29T23:26:46.215Z,99.90
2018-09-29T23:29:16.202Z,99.90
2018-09-29T23:31:49.176Z,99.90
2018-09-29T23:34:19.401Z,99.90
2018-09-29T23:36:47.565Z,99.90
2018-09-29T23:39:21.929Z,99.90
2018-09-29T23:41:56.350Z,99.90
2018-09-29T23:44:27.706Z,99.90
2018-09-29T23:47:00.873Z,99.90
2018-09-29T23:49:29.457Z,99.90
2018-09-29T23:52:00.518Z,99.90
2018-09-29T23:54:31.723Z,99.90
2018-09-29T23:57:04.822Z,99.90
2018-09-29T23:59:36.005Z,99.90
